Terminal Aerodrome Forecast
Issued by NWS Blacksburg, VA

Current Version | Previous Version | Graphics & Text | Print | Product List | Glossary On
Versions: 1 2 3 4 5 6 7 8 9 10 11 12 13 14 15 16 17 18 19 20 21 22 23 24
000
FTUS41 KRNK 290904 AAA
TAFBLF
TAF AMD
KBLF 290904Z 2909/3006 29007KT P6SM OVC006
     FM291300 28006KT P6SM BKN010
     FM291600 29007KT P6SM BKN035
      TEMPO 2918/2920 3SM TSRA OVC050CB
     FM300400 VRB03KT P6SM BKN060=

USA.gov is the U.S. government's official web portal to all federal, state and local government web resources and services.